Terminal Aerodrome Forecast
Issued by NWS

Home | Current Version | Previous Version | Text Only | Print | Product List | Glossary On
Versions: 1 2 3 4 5 6 7 8 9 10 11 12 13 14
000
FTUS45 KRIW 152327
TAFRKS
TAF
KRKS 152327Z 1600/1624 23012KT P6SM SCT120 BKN200 WS020/27030KT
     FM161300 26012KT P6SM VCSH SCT030 OVC060
     FM161700 26010KT 4SM -SN SCT015 OVC030
     FM162000 27012G18KT 2SM -SN SCT003 OVC012=

USA.gov is the U.S. government's official web portal to all federal, state and local government web resources and services.